Manchester, WA (98353)

1:58 AM PDT on July 26, 2016 (GMT -0700)
Point Glover Knoll | | Change Station

Elev 220 ft 47.57 °N, 122.57 °W | Updated 23 seconds ago

Partly Cloudy
Partly Cloudy
61.3 °F
Feels Like 61.3 °F
N
0.0
Wind Variable Wind from WSW
Gusts 0.0 mph

Today
High -- | Low -- °F
--% Chance of Precip.
Yesterday
High -- | Low -- °F
Precip. -- in
Pressure 30.14 in
Visibility 10.0 miles
Clouds Few 6500 ft
Dew Point 58 °F
Humidity 89%
Rainfall 0.00 in
Snow Depth Not available.
5:41 AM 8:51 PM
Waning Gibbous, 57% visible
METAR KPWT 260855Z AUTO 19006KT 10SM FEW065 14/13 A3014 RMK AO1 52010
Pressure 30.14 in
Visibility 10.0 miles
Clouds Few 6500 ft
Dew Point 58 °F
Humidity 89%
Rainfall 0.00 in
Snow Depth Not available.
5:41 AM 8:51 PM
Waning Gibbous, 57% visible
METAR KPWT 260855Z AUTO 19006KT 10SM FEW065 14/13 A3014 RMK AO1 52010

10-Day Weather Forecast

Almanac

Astronomy

Jul. 26, 2016 Rise Set
Actual Time
Civil Twilight
Nautical Twilight
Astronomical Twilight
Moon
Length of Visible Light
Length of Day
Tomorrow will be .
, % of the Moon is Illuminated

Today's Extremes

State Highs State Lows

Community

WunderPhotos

Upload Photos

1,927,556 photos uploaded!

WunderBlog® & News

Nearby

Air Quality

  Air Quality AQ Index Pollutant
Not available.

Snow Depth

Station Depth Elevation

Earthquake Activity

City Distance Mag. Time & Date
Minimum magnitude displayed is 2.5.

Coastal Water Temperatures

Place Temperature

Stations

Nearby Weather Stations

Station Location Temp. Windchill Dew Point Humidity Wind Precip. Elev Updated Type
                   

Watches & Warnings

There are currently no watches in effect.